Main page
METAR-TAF:

METAR-TAF

Airports :

McKellar–Sipes Regional Airport

Jackson, Tennessee, United States

latitude: 35-35-35N, longitude: 088-55-00W, elevation: 433 ft

Current weather observation

The report was made 59 minutes ago, at 01:53 UTC
Calm wind
Temperature 81°F
Humidity 79%
Pressure 29.93 in. Hg
Visibility: 10 miles
Clear sky

METAR: KMKL 250153Z AUTO 00000KT 10SM CLR 27/23 A2993 RMK AO2 SLP131 T02670228 $

Time: 21:52 (02:52 UTC)

Forecast

The report was made 3 hours and 31 minutes ago, at 23:21 UTC
Forecast valid from 25 at 00 UTC to 25 at 24 UTC
Wind 0 mph from the North
Visibility: 6 miles
Clear sky
From 25 at 0400 UTC
Wind 0 mph from the North
Visibility: 6 miles
Clear sky
From 25 at 1400 UTC
Wind 6 mph from the South/Southwest
Visibility: 6 miles
Few clouds at a height of 25000 ft

TAF: KMKL 242321Z 2500/2524 00000KT P6SM SKC FM250400 00000KT P6SM SKC FM251400 21005KT P6SM FEW250

Weather observations and forecasts of more than 4000 airports (METAR and TAF reports).

The available stations are represented by yellow and red dots on the map.

Hover mouse over dot to see the name of the station.

Then click to see weather observations and forecasts.

To change the map : click on the green buttons with a black cross to zoom in, on the green button with a dash to zoom out, or on the green arrows for adjacent maps.


METAR-TAF: